createdAt,value
2019-05-26T00:01:47.965Z,100.00
2019-05-26T00:04:16.795Z,100.00
2019-05-26T00:06:45.519Z,100.00
2019-05-26T00:09:14.272Z,100.00
2019-05-26T00:11:42.966Z,100.00
2019-05-26T00:14:11.751Z,100.00
2019-05-26T00:16:40.438Z,100.00
2019-05-26T00:19:09.221Z,100.00
2019-05-26T00:21:39.243Z,100.00
2019-05-26T00:24:07.929Z,100.00
2019-05-26T00:26:36.609Z,100.00
2019-05-26T00:29:05.240Z,100.00
2019-05-26T00:31:33.992Z,100.00
2019-05-26T00:34:02.628Z,100.00
2019-05-26T00:36:31.360Z,100.00
2019-05-26T00:39:00.029Z,100.00
2019-05-26T00:41:28.769Z,100.00
2019-05-26T00:43:57.519Z,100.00
2019-05-26T00:46:26.202Z,100.00
2019-05-26T00:48:55.607Z,100.00
2019-05-26T00:51:24.297Z,100.00
2019-05-26T00:53:52.987Z,100.00
2019-05-26T00:56:21.790Z,100.00
2019-05-26T00:58:50.469Z,100.00
2019-05-26T01:01:19.244Z,100.00
2019-05-26T01:03:48.649Z,100.00
2019-05-26T01:06:17.341Z,100.00
2019-05-26T01:08:46.050Z,100.00
2019-05-26T01:11:14.806Z,100.00
2019-05-26T01:13:43.493Z,100.00
2019-05-26T01:16:12.179Z,100.00
2019-05-26T01:18:41.006Z,100.00
2019-05-26T01:21:10.169Z,100.00
2019-05-26T01:23:39.070Z,100.00
2019-05-26T01:26:07.748Z,100.00
2019-05-26T01:28:36.537Z,100.00
2019-05-26T01:31:05.238Z,100.00
2019-05-26T01:33:33.908Z,100.00
2019-05-26T01:36:02.707Z,100.00
2019-05-26T01:38:31.699Z,100.00
2019-05-26T01:41:00.380Z,100.00
2019-05-26T01:43:29.088Z,100.00
2019-05-26T01:45:57.967Z,100.00
2019-05-26T01:48:26.644Z,100.00
2019-05-26T01:50:55.274Z,100.00
2019-05-26T01:53:24.018Z,100.00
2019-05-26T01:55:54.183Z,100.00
2019-05-26T01:58:22.924Z,100.00
2019-05-26T02:00:51.726Z,100.00
2019-05-26T02:03:20.502Z,100.00
2019-05-26T02:05:49.205Z,100.00
2019-05-26T02:08:19.929Z,100.00
2019-05-26T02:10:48.736Z,100.00
2019-05-26T02:13:17.399Z,100.00
2019-05-26T02:15:46.205Z,100.00
2019-05-26T02:18:14.882Z,100.00
2019-05-26T02:20:43.663Z,100.00
2019-05-26T02:23:12.350Z,100.00
2019-05-26T02:25:42.063Z,100.00
2019-05-26T02:28:10.748Z,100.00
2019-05-26T02:30:39.453Z,100.00
2019-05-26T02:33:08.231Z,100.00
2019-05-26T02:35:36.914Z,100.00
2019-05-26T02:38:05.805Z,100.00
2019-05-26T02:40:34.522Z,100.00
2019-05-26T02:43:03.276Z,100.00
2019-05-26T02:45:31.993Z,100.00
2019-05-26T02:48:02.505Z,100.00
2019-05-26T02:50:31.180Z,100.00
2019-05-26T02:52:59.861Z,100.00
2019-05-26T02:55:28.680Z,100.00
2019-05-26T02:57:57.339Z,100.00
2019-05-26T03:00:41.189Z,100.00
2019-05-26T03:03:10.211Z,100.00
2019-05-26T03:05:40.022Z,100.00
2019-05-26T03:08:09.188Z,100.00
2019-05-26T03:10:38.283Z,100.00
2019-05-26T03:13:07.131Z,100.00
2019-05-26T03:15:36.577Z,100.00
2019-05-26T03:18:07.220Z,100.00
2019-05-26T03:20:42.042Z,100.00
2019-05-26T03:23:11.147Z,100.00
2019-05-26T03:25:40.645Z,100.00
2019-05-26T03:28:09.525Z,100.00
2019-05-26T03:30:38.369Z,100.00
2019-05-26T03:33:07.900Z,100.00
2019-05-26T03:35:36.848Z,100.00
2019-05-26T03:38:05.514Z,100.00
2019-05-26T03:40:34.203Z,100.00
2019-05-26T03:43:02.911Z,100.00
2019-05-26T03:45:43.657Z,100.00
2019-05-26T03:48:16.324Z,100.00
2019-05-26T03:50:45.025Z,100.00
2019-05-26T03:53:16.776Z,100.00
2019-05-26T03:55:45.483Z,100.00
2019-05-26T03:58:14.256Z,100.00
2019-05-26T04:00:42.970Z,100.00
2019-05-26T04:03:11.625Z,100.00
2019-05-26T04:05:40.316Z,100.00
2019-05-26T04:08:09.097Z,100.00
2019-05-26T04:10:37.786Z,100.00
2019-05-26T04:13:06.696Z,100.00
2019-05-26T04:15:35.467Z,100.00
2019-05-26T04:18:04.367Z,100.00
2019-05-26T04:20:33.557Z,100.00
2019-05-26T04:23:02.196Z,100.00
2019-05-26T04:25:30.927Z,100.00
2019-05-26T04:27:59.629Z,100.00
2019-05-26T04:30:28.309Z,100.00
2019-05-26T04:32:57.005Z,100.00
2019-05-26T04:35:25.677Z,100.00
2019-05-26T04:37:54.405Z,100.00
2019-05-26T04:40:27.337Z,100.00
2019-05-26T04:42:53.475Z,100.00
2019-05-26T04:45:22.279Z,100.00
2019-05-26T04:47:50.951Z,100.00
2019-05-26T04:50:19.847Z,100.00
2019-05-26T04:53:05.211Z,100.00
2019-05-26T04:55:18.956Z,100.00
2019-05-26T04:57:47.588Z,100.00
2019-05-26T05:00:18.076Z,100.00
2019-05-26T05:02:46.857Z,100.00
2019-05-26T05:05:15.572Z,100.00
2019-05-26T05:07:44.541Z,100.00
2019-05-26T05:10:13.232Z,100.00
2019-05-26T05:12:41.921Z,100.00
2019-05-26T05:15:10.904Z,100.00
2019-05-26T05:17:39.600Z,100.00
2019-05-26T05:20:08.685Z,100.00
2019-05-26T05:22:37.486Z,100.00
2019-05-26T05:25:14.647Z,100.00
2019-05-26T05:27:39.677Z,100.00
2019-05-26T05:30:08.736Z,100.00
2019-05-26T05:32:37.457Z,100.00
2019-05-26T05:35:09.820Z,100.00
2019-05-26T05:37:38.507Z,100.00
2019-05-26T05:40:08.525Z,100.00
2019-05-26T05:42:37.990Z,100.00
2019-05-26T05:45:08.446Z,100.00
2019-05-26T05:47:37.390Z,100.00
2019-05-26T05:50:09.104Z,100.00
2019-05-26T05:52:38.184Z,100.00
2019-05-26T05:55:07.630Z,100.00
2019-05-26T05:57:36.398Z,100.00
2019-05-26T06:00:09.425Z,100.00
2019-05-26T06:02:38.290Z,100.00
2019-05-26T06:05:11.593Z,100.00
2019-05-26T06:07:40.484Z,100.00
2019-05-26T06:10:09.894Z,100.00
2019-05-26T06:12:38.654Z,100.00
2019-05-26T06:15:15.975Z,100.00
2019-05-26T06:17:44.959Z,100.00
2019-05-26T06:20:14.385Z,100.00
2019-05-26T06:22:43.041Z,100.00
2019-05-26T06:25:12.848Z,100.00
2019-05-26T06:27:43.796Z,100.00
2019-05-26T06:30:14.867Z,100.00
2019-05-26T06:32:46.163Z,100.00
2019-05-26T06:35:17.189Z,100.00
2019-05-26T06:37:46.751Z,100.00
2019-05-26T06:40:15.691Z,100.00
2019-05-26T06:42:45.011Z,100.00
2019-05-26T06:45:14.670Z,100.00
2019-05-26T06:47:43.492Z,100.00
2019-05-26T06:50:12.820Z,100.00
2019-05-26T06:52:41.738Z,100.00
2019-05-26T06:55:10.996Z,100.00
2019-05-26T06:57:39.688Z,100.00
2019-05-26T07:00:09.199Z,100.00
2019-05-26T07:02:38.905Z,100.00
2019-05-26T07:05:08.206Z,100.00
2019-05-26T07:07:36.998Z,100.00
2019-05-26T07:10:07.083Z,100.00
2019-05-26T07:12:35.978Z,100.00
2019-05-26T07:15:06.674Z,100.00
2019-05-26T07:17:37.169Z,100.00
2019-05-26T07:20:07.170Z,100.00
2019-05-26T07:22:36.841Z,100.00
2019-05-26T07:25:08.877Z,100.00
2019-05-26T07:27:37.643Z,100.00
2019-05-26T07:30:09.458Z,100.00
2019-05-26T07:32:39.846Z,100.00
2019-05-26T07:35:11.917Z,100.00
2019-05-26T07:37:41.076Z,100.00
2019-05-26T07:40:11.136Z,100.00
2019-05-26T07:42:40.013Z,100.00
2019-05-26T07:45:08.904Z,100.00
2019-05-26T07:47:37.691Z,100.00
2019-05-26T07:50:09.589Z,100.00
2019-05-26T07:52:38.499Z,100.00
2019-05-26T07:55:09.184Z,100.00
2019-05-26T07:57:38.415Z,100.00
2019-05-26T08:00:08.927Z,100.00
2019-05-26T08:02:37.685Z,100.00
2019-05-26T08:05:07.752Z,100.00
2019-05-26T08:07:36.801Z,100.00
2019-05-26T08:10:07.133Z,100.00
2019-05-26T08:12:36.257Z,100.00
2019-05-26T08:15:06.451Z,100.00
2019-05-26T08:17:35.748Z,100.00
2019-05-26T08:20:09.447Z,100.00
2019-05-26T08:22:38.294Z,97.09
2019-05-26T08:25:07.757Z,100.00
2019-05-26T08:27:39.677Z,96.60
2019-05-26T08:30:13.407Z,97.58
2019-05-26T08:32:42.099Z,98.42
2019-05-26T08:35:12.542Z,97.94
2019-05-26T08:37:41.206Z,100.00
2019-05-26T08:40:19.354Z,94.40
2019-05-26T08:42:50.549Z,92.28
2019-05-26T08:45:22.088Z,95.52
2019-05-26T08:47:51.411Z,87.63
2019-05-26T08:50:20.716Z,88.30
2019-05-26T08:52:49.851Z,87.51
2019-05-26T08:55:18.918Z,85.83
2019-05-26T08:57:48.143Z,87.22
2019-05-26T09:00:17.534Z,85.14
2019-05-26T09:02:46.507Z,91.72
2019-05-26T09:05:15.603Z,85.23
2019-05-26T09:07:45.831Z,81.94
2019-05-26T09:10:14.717Z,77.73
2019-05-26T09:12:47.696Z,79.86
2019-05-26T09:15:14.260Z,77.57
2019-05-26T09:17:43.020Z,77.30
2019-05-26T09:20:12.526Z,79.29
2019-05-26T09:22:41.332Z,75.01
2019-05-26T09:25:10.414Z,76.52
2019-05-26T09:27:39.109Z,79.03
2019-05-26T09:30:09.177Z,71.60
2019-05-26T09:32:38.117Z,75.24
2019-05-26T09:35:09.139Z,78.15
2019-05-26T09:37:37.849Z,72.65
2019-05-26T09:40:08.310Z,69.62
2019-05-26T09:42:37.484Z,71.53
2019-05-26T09:45:08.511Z,79.17
2019-05-26T09:47:37.309Z,72.46
2019-05-26T09:50:07.766Z,71.58
2019-05-26T09:52:36.825Z,61.10
2019-05-26T09:55:09.603Z,64.04
2019-05-26T09:57:38.291Z,74.10
2019-05-26T10:00:08.727Z,76.70
2019-05-26T10:02:37.386Z,73.02
2019-05-26T10:05:06.798Z,72.61
2019-05-26T10:07:35.489Z,70.00
2019-05-26T10:10:07.393Z,59.53
2019-05-26T10:12:35.995Z,58.96
2019-05-26T10:15:06.805Z,61.69
2019-05-26T10:17:35.491Z,59.03
2019-05-26T10:20:09.189Z,65.91
2019-05-26T10:22:37.908Z,60.64
2019-05-26T10:25:08.177Z,66.14
2019-05-26T10:27:37.759Z,61.85
2019-05-26T10:30:10.894Z,63.05
2019-05-26T10:32:39.672Z,55.97
2019-05-26T10:35:08.920Z,57.07
2019-05-26T10:37:37.583Z,58.80
2019-05-26T10:40:07.523Z,60.60
2019-05-26T10:42:36.262Z,57.67
2019-05-26T10:45:08.737Z,59.10
2019-05-26T10:47:37.419Z,59.61
2019-05-26T10:50:07.718Z,57.22
2019-05-26T10:52:37.538Z,57.43
2019-05-26T10:55:06.982Z,56.42
2019-05-26T10:57:35.761Z,55.18
2019-05-26T11:00:06.381Z,57.29
2019-05-26T11:02:35.077Z,55.89
2019-05-26T11:05:05.035Z,57.23
2019-05-26T11:07:34.394Z,57.03
2019-05-26T11:10:03.584Z,58.01
2019-05-26T11:12:32.369Z,57.46
2019-05-26T11:15:02.811Z,57.63
2019-05-26T11:17:31.491Z,53.06
2019-05-26T11:20:00.192Z,53.17
2019-05-26T11:22:28.958Z,45.60
2019-05-26T11:24:57.643Z,49.65
2019-05-26T11:27:26.339Z,47.07
2019-05-26T11:29:55.151Z,45.79
2019-05-26T11:32:23.810Z,50.75
2019-05-26T11:35:01.111Z,43.80
2019-05-26T11:37:23.017Z,44.14
2019-05-26T11:39:51.756Z,47.53
2019-05-26T11:42:20.600Z,54.63
2019-05-26T11:44:49.283Z,53.49
2019-05-26T11:47:18.072Z,47.16
2019-05-26T11:49:46.775Z,51.47
2019-05-26T11:52:15.563Z,46.95
2019-05-26T11:54:44.337Z,44.93
2019-05-26T11:57:13.058Z,46.51
2019-05-26T11:59:41.816Z,46.95
2019-05-26T12:02:10.662Z,46.12
2019-05-26T12:04:39.592Z,46.01
2019-05-26T12:07:08.388Z,44.72
2019-05-26T12:09:37.177Z,46.19
2019-05-26T12:12:06.175Z,46.83
2019-05-26T12:14:35.704Z,47.73
2019-05-26T12:17:06.191Z,45.77
2019-05-26T12:19:34.889Z,49.01
2019-05-26T12:22:05.120Z,46.72
2019-05-26T12:24:33.798Z,48.95
2019-05-26T12:27:04.154Z,50.11
2019-05-26T12:29:32.820Z,54.98
2019-05-26T12:32:01.801Z,48.90
2019-05-26T12:34:30.484Z,56.08
2019-05-26T12:37:01.457Z,52.21
2019-05-26T12:39:30.451Z,52.68
2019-05-26T12:41:59.419Z,56.52
2019-05-26T12:44:28.311Z,48.90
2019-05-26T12:46:57.408Z,54.78
2019-05-26T12:49:27.847Z,59.08
2019-05-26T12:51:56.624Z,54.93
2019-05-26T12:54:25.314Z,54.24
2019-05-26T12:56:54.090Z,53.29
2019-05-26T12:59:22.799Z,51.87
2019-05-26T13:01:53.256Z,56.61
2019-05-26T13:04:22.112Z,52.24
2019-05-26T13:06:50.990Z,58.64
2019-05-26T13:09:19.775Z,61.81
2019-05-26T13:11:48.493Z,63.78
2019-05-26T13:14:17.250Z,59.09
2019-05-26T13:16:45.950Z,57.12
2019-05-26T13:19:16.271Z,53.21
2019-05-26T13:21:46.866Z,58.55
2019-05-26T13:24:18.807Z,58.72
2019-05-26T13:26:47.548Z,66.82
2019-05-26T13:29:16.641Z,62.96
2019-05-26T13:31:45.328Z,59.52
2019-05-26T13:34:14.120Z,52.72
2019-05-26T13:36:42.795Z,59.77
2019-05-26T13:39:11.403Z,58.15
2019-05-26T13:41:40.020Z,61.58
2019-05-26T13:44:08.710Z,56.14
2019-05-26T13:46:37.391Z,58.68
2019-05-26T13:49:06.039Z,52.64
2019-05-26T13:51:34.713Z,54.20
2019-05-26T13:54:03.511Z,66.53
2019-05-26T13:56:32.222Z,61.52
2019-05-26T13:59:00.971Z,66.50
2019-05-26T14:01:29.627Z,65.95
2019-05-26T14:03:58.381Z,68.90
2019-05-26T14:06:27.214Z,64.38
2019-05-26T14:08:55.912Z,66.97
2019-05-26T14:11:24.534Z,65.81
2019-05-26T14:13:53.362Z,64.88
2019-05-26T14:16:23.294Z,65.09
2019-05-26T14:18:53.801Z,65.19
2019-05-26T14:21:22.463Z,65.45
2019-05-26T14:23:51.092Z,63.32
2019-05-26T14:26:19.791Z,59.26
2019-05-26T14:28:48.501Z,59.32
2019-05-26T14:31:17.196Z,62.40
2019-05-26T14:33:45.833Z,64.01
2019-05-26T14:36:14.661Z,68.14
2019-05-26T14:38:43.873Z,68.83
2019-05-26T14:41:13.367Z,71.13
2019-05-26T14:43:42.020Z,72.45
2019-05-26T14:46:10.736Z,67.29
2019-05-26T14:48:39.428Z,62.63
2019-05-26T14:51:08.884Z,61.54
2019-05-26T14:53:37.531Z,63.44
2019-05-26T14:56:06.406Z,63.08
2019-05-26T14:58:35.071Z,69.45
2019-05-26T15:01:03.780Z,70.51
2019-05-26T15:03:32.442Z,71.72
2019-05-26T15:06:05.982Z,70.94
2019-05-26T15:08:31.617Z,70.28
2019-05-26T15:11:00.236Z,69.97
2019-05-26T15:13:28.950Z,73.42
2019-05-26T15:16:09.398Z,77.51
2019-05-26T15:18:28.002Z,76.35
2019-05-26T15:20:56.651Z,75.79
2019-05-26T15:23:25.342Z,80.08
2019-05-26T15:25:54.031Z,76.50
2019-05-26T15:28:22.707Z,78.29
2019-05-26T15:30:51.379Z,81.08
2019-05-26T15:33:21.548Z,80.51
2019-05-26T15:35:52.248Z,80.76
2019-05-26T15:38:20.607Z,78.97
2019-05-26T15:40:49.390Z,80.04
2019-05-26T15:43:17.998Z,80.89
2019-05-26T15:45:46.638Z,88.11
2019-05-26T15:48:15.357Z,91.06
2019-05-26T15:50:44.039Z,92.66
2019-05-26T15:53:12.734Z,91.45
2019-05-26T15:55:41.925Z,86.41
2019-05-26T15:58:10.658Z,87.77
2019-05-26T16:00:39.383Z,86.74
2019-05-26T16:03:08.062Z,85.06
2019-05-26T16:05:38.476Z,87.16
2019-05-26T16:08:07.157Z,83.85
2019-05-26T16:10:35.885Z,82.76
2019-05-26T16:13:04.506Z,85.10
2019-05-26T16:15:33.165Z,82.01
2019-05-26T16:18:01.954Z,84.74
2019-05-26T16:20:30.617Z,82.46
2019-05-26T16:22:59.483Z,85.69
2019-05-26T16:25:28.114Z,85.36
2019-05-26T16:27:56.868Z,88.83
2019-05-26T16:30:25.920Z,91.79
2019-05-26T16:32:54.661Z,88.67
2019-05-26T16:35:23.381Z,95.09
2019-05-26T16:37:52.132Z,93.57
2019-05-26T16:40:20.864Z,94.91
2019-05-26T16:42:49.522Z,95.09
2019-05-26T16:45:19.217Z,96.35
2019-05-26T16:47:48.068Z,98.91
2019-05-26T16:50:16.893Z,96.43
2019-05-26T16:52:45.517Z,100.00
2019-05-26T16:55:14.380Z,95.57
2019-05-26T16:57:43.103Z,92.32
2019-05-26T17:00:11.973Z,93.82
2019-05-26T17:02:40.590Z,97.91
2019-05-26T17:05:09.435Z,100.00
2019-05-26T17:07:38.048Z,100.00
2019-05-26T17:10:09.634Z,100.00
2019-05-26T17:12:38.273Z,100.00
2019-05-26T17:15:08.298Z,100.00
2019-05-26T17:17:36.927Z,100.00
2019-05-26T17:20:09.678Z,100.00
2019-05-26T17:22:38.502Z,100.00
2019-05-26T17:25:07.649Z,100.00
2019-05-26T17:27:38.294Z,100.00
2019-05-26T17:30:07.914Z,100.00
2019-05-26T17:32:36.696Z,100.00
2019-05-26T17:35:06.643Z,100.00
2019-05-26T17:37:35.365Z,100.00
2019-05-26T17:40:06.723Z,100.00
2019-05-26T17:42:35.461Z,100.00
2019-05-26T17:45:07.615Z,100.00
2019-05-26T17:47:36.322Z,100.00
2019-05-26T17:50:09.391Z,100.00
2019-05-26T17:52:38.210Z,100.00
2019-05-26T17:55:08.710Z,100.00
2019-05-26T17:57:37.411Z,100.00
2019-05-26T18:00:09.756Z,100.00
2019-05-26T18:02:38.508Z,100.00
2019-05-26T18:05:07.518Z,100.00
2019-05-26T18:07:36.298Z,100.00
2019-05-26T18:10:09.041Z,100.00
2019-05-26T18:12:38.039Z,100.00
2019-05-26T18:15:09.677Z,100.00
2019-05-26T18:17:46.883Z,100.00
2019-05-26T18:20:08.939Z,100.00
2019-05-26T18:22:39.659Z,100.00
2019-05-26T18:25:09.252Z,100.00
2019-05-26T18:27:42.825Z,100.00
2019-05-26T18:30:12.044Z,100.00
2019-05-26T18:32:40.707Z,100.00
2019-05-26T18:35:09.940Z,100.00
2019-05-26T18:37:40.024Z,100.00
2019-05-26T18:40:09.398Z,100.00
2019-05-26T18:42:38.113Z,100.00
2019-05-26T18:45:08.552Z,100.00
2019-05-26T18:47:38.933Z,100.00
2019-05-26T18:50:09.851Z,100.00
2019-05-26T18:52:41.063Z,100.00
2019-05-26T18:55:10.445Z,100.00
2019-05-26T18:57:44.331Z,100.00
2019-05-26T19:00:14.432Z,100.00
2019-05-26T19:02:43.339Z,100.00
2019-05-26T19:05:12.662Z,100.00
2019-05-26T19:07:41.524Z,100.00
2019-05-26T19:10:10.805Z,100.00
2019-05-26T19:12:39.570Z,100.00
2019-05-26T19:15:09.238Z,100.00
2019-05-26T19:17:37.876Z,100.00
2019-05-26T19:20:16.299Z,100.00
2019-05-26T19:22:38.498Z,100.00
2019-05-26T19:25:07.268Z,100.00
2019-05-26T19:27:36.047Z,100.00
2019-05-26T19:30:09.009Z,100.00
2019-05-26T19:32:37.842Z,100.00
2019-05-26T19:35:07.737Z,100.00
2019-05-26T19:37:36.523Z,100.00
2019-05-26T19:40:08.776Z,100.00
2019-05-26T19:42:40.949Z,100.00
2019-05-26T19:45:11.570Z,100.00
2019-05-26T19:47:40.190Z,100.00
2019-05-26T19:50:09.992Z,100.00
2019-05-26T19:52:38.865Z,100.00
2019-05-26T19:55:10.860Z,100.00
2019-05-26T19:57:39.481Z,100.00
2019-05-26T20:00:13.723Z,100.00
2019-05-26T20:02:42.472Z,100.00
2019-05-26T20:05:11.675Z,100.00
2019-05-26T20:07:40.405Z,100.00
2019-05-26T20:10:09.373Z,100.00
2019-05-26T20:12:37.996Z,100.00
2019-05-26T20:15:07.514Z,100.00
2019-05-26T20:17:36.207Z,100.00
2019-05-26T20:20:07.396Z,100.00
2019-05-26T20:22:36.242Z,100.00
2019-05-26T20:25:07.554Z,100.00
2019-05-26T20:27:36.174Z,100.00
2019-05-26T20:30:06.476Z,100.00
2019-05-26T20:32:36.885Z,100.00
2019-05-26T20:35:08.478Z,100.00
2019-05-26T20:37:37.416Z,100.00
2019-05-26T20:40:07.463Z,100.00
2019-05-26T20:42:36.112Z,100.00
2019-05-26T20:45:06.987Z,100.00
2019-05-26T20:47:35.629Z,100.00
2019-05-26T20:50:06.311Z,100.00
2019-05-26T20:52:36.713Z,100.00
2019-05-26T20:55:09.766Z,100.00
2019-05-26T20:57:38.466Z,100.00
2019-05-26T21:00:13.869Z,100.00
2019-05-26T21:02:43.665Z,100.00
2019-05-26T21:05:12.424Z,100.00
2019-05-26T21:07:41.193Z,100.00
2019-05-26T21:10:10.721Z,100.00
2019-05-26T21:12:39.403Z,100.00
2019-05-26T21:15:09.525Z,100.00
2019-05-26T21:17:38.258Z,100.00
2019-05-26T21:20:08.465Z,100.00
2019-05-26T21:22:37.238Z,100.00
2019-05-26T21:25:06.680Z,100.00
2019-05-26T21:27:35.381Z,100.00
2019-05-26T21:30:08.209Z,100.00
2019-05-26T21:32:37.002Z,100.00
2019-05-26T21:35:07.014Z,100.00
2019-05-26T21:37:35.820Z,100.00
2019-05-26T21:40:06.105Z,100.00
2019-05-26T21:42:34.813Z,100.00
2019-05-26T21:45:04.924Z,100.00
2019-05-26T21:47:33.716Z,100.00
2019-05-26T21:50:02.411Z,100.00
2019-05-26T21:52:31.102Z,100.00
2019-05-26T21:54:59.797Z,100.00
2019-05-26T21:57:28.644Z,100.00
2019-05-26T21:59:57.259Z,100.00
2019-05-26T22:02:25.882Z,100.00
2019-05-26T22:04:54.580Z,100.00
2019-05-26T22:07:23.194Z,100.00
2019-05-26T22:09:51.862Z,100.00
2019-05-26T22:12:20.531Z,100.00
2019-05-26T22:14:49.211Z,100.00
2019-05-26T22:17:17.832Z,100.00
2019-05-26T22:19:46.466Z,100.00
2019-05-26T22:22:15.135Z,100.00
2019-05-26T22:24:44.070Z,100.00
2019-05-26T22:27:12.727Z,100.00
2019-05-26T22:29:41.403Z,100.00
2019-05-26T22:32:10.112Z,100.00
2019-05-26T22:34:38.731Z,100.00
2019-05-26T22:37:07.413Z,100.00
2019-05-26T22:39:37.326Z,100.00
2019-05-26T22:42:06.030Z,100.00
2019-05-26T22:44:34.648Z,100.00
2019-05-26T22:47:03.359Z,100.00
2019-05-26T22:49:31.978Z,100.00
2019-05-26T22:52:00.655Z,100.00
2019-05-26T22:54:29.324Z,100.00
2019-05-26T22:56:58.074Z,100.00
2019-05-26T22:59:26.726Z,100.00
2019-05-26T23:01:55.386Z,100.00
2019-05-26T23:04:26.104Z,100.00
2019-05-26T23:06:54.723Z,100.00
2019-05-26T23:09:23.418Z,100.00
2019-05-26T23:11:52.063Z,100.00
2019-05-26T23:14:20.709Z,100.00
2019-05-26T23:16:49.387Z,100.00
2019-05-26T23:19:19.898Z,100.00
2019-05-26T23:21:48.424Z,100.00
2019-05-26T23:24:18.452Z,100.00
2019-05-26T23:26:47.113Z,100.00
2019-05-26T23:29:15.741Z,100.00
2019-05-26T23:31:44.470Z,100.00
2019-05-26T23:34:13.117Z,100.00
2019-05-26T23:36:41.798Z,100.00
2019-05-26T23:39:10.524Z,100.00
2019-05-26T23:41:39.216Z,100.00
2019-05-26T23:44:08.013Z,100.00
2019-05-26T23:46:36.697Z,100.00
2019-05-26T23:49:05.451Z,100.00
2019-05-26T23:51:34.116Z,100.00
2019-05-26T23:54:02.887Z,100.00
2019-05-26T23:56:31.558Z,100.00
2019-05-26T23:59:00.191Z,100.00
